createdAt,value
2019-02-26T00:00:26.183Z,67.93
2019-02-26T00:02:55.357Z,60.23
2019-02-26T00:05:21.575Z,68.87
2019-02-26T00:07:50.908Z,64.07
2019-02-26T00:10:15.012Z,63.13
2019-02-26T00:12:40.217Z,63.07
2019-02-26T00:15:09.035Z,67.23
2019-02-26T00:17:38.540Z,64.40
2019-02-26T00:20:05.553Z,71.30
2019-02-26T00:22:30.012Z,63.07
2019-02-26T00:24:56.276Z,68.30
2019-02-26T00:27:23.369Z,64.30
2019-02-26T00:29:51.343Z,65.73
2019-02-26T00:32:18.388Z,62.37
2019-02-26T00:34:44.257Z,59.77
2019-02-26T00:37:09.827Z,57.00
2019-02-26T00:39:35.384Z,59.77
2019-02-26T00:42:05.167Z,62.17
2019-02-26T00:44:32.215Z,61.83
2019-02-26T00:46:59.609Z,58.80
2019-02-26T00:49:25.820Z,63.10
2019-02-26T00:51:52.890Z,67.23
2019-02-26T00:54:22.148Z,64.63
2019-02-26T00:56:48.164Z,65.33
2019-02-26T00:59:13.703Z,59.13
2019-02-26T01:01:39.275Z,58.60
2019-02-26T01:04:04.939Z,59.27
2019-02-26T01:06:31.248Z,55.50
2019-02-26T01:08:59.010Z,59.57
2019-02-26T01:11:27.996Z,56.67
2019-02-26T01:13:56.886Z,60.83
2019-02-26T01:16:22.588Z,62.73
2019-02-26T01:18:49.395Z,57.30
2019-02-26T01:21:15.885Z,60.10
2019-02-26T01:23:41.441Z,56.77
2019-02-26T01:26:07.015Z,63.53
2019-02-26T01:28:34.976Z,56.07
2019-02-26T01:31:02.607Z,65.10
2019-02-26T01:33:30.218Z,62.37
2019-02-26T01:35:57.812Z,66.20
2019-02-26T01:38:23.777Z,66.43
2019-02-26T01:40:51.866Z,68.17
2019-02-26T01:43:16.718Z,61.60
2019-02-26T01:45:43.819Z,68.30
2019-02-26T01:48:11.506Z,66.00
2019-02-26T01:50:37.949Z,67.00
2019-02-26T01:53:03.364Z,67.93
2019-02-26T01:55:28.522Z,65.23
2019-02-26T01:57:54.074Z,65.83
2019-02-26T02:00:19.309Z,70.17
2019-02-26T02:02:44.547Z,71.20
2019-02-26T02:05:09.905Z,66.27
2019-02-26T02:07:35.332Z,71.97
2019-02-26T02:10:03.027Z,67.10
2019-02-26T02:12:30.106Z,65.27
2019-02-26T02:14:55.782Z,69.80
2019-02-26T02:17:21.077Z,68.87
2019-02-26T02:19:46.467Z,71.87
2019-02-26T02:22:14.560Z,67.77
2019-02-26T02:24:41.815Z,69.27
2019-02-26T02:27:06.967Z,69.40
2019-02-26T02:29:32.201Z,75.90
2019-02-26T02:31:59.495Z,80.70
2019-02-26T02:34:27.029Z,66.53
2019-02-26T02:36:51.590Z,69.70
2019-02-26T02:39:18.264Z,72.63
2019-02-26T02:41:45.430Z,66.10
2019-02-26T02:44:14.482Z,71.30
2019-02-26T02:46:39.272Z,67.67
2019-02-26T02:49:07.490Z,66.57
2019-02-26T02:51:36.411Z,66.47
2019-02-26T02:54:02.148Z,70.60
2019-02-26T02:56:27.437Z,69.57
2019-02-26T02:58:52.608Z,62.20
2019-02-26T03:01:20.409Z,69.50
2019-02-26T03:03:47.742Z,72.47
2019-02-26T03:06:14.371Z,63.83
2019-02-26T03:08:42.099Z,68.87
2019-02-26T03:11:07.426Z,71.37
2019-02-26T03:13:33.842Z,69.67
2019-02-26T03:16:01.639Z,69.03
2019-02-26T03:18:29.248Z,68.37
2019-02-26T03:20:56.738Z,64.00
2019-02-26T03:23:22.272Z,72.90
2019-02-26T03:25:49.824Z,70.13
2019-02-26T03:28:15.310Z,70.90
2019-02-26T03:30:44.374Z,65.60
2019-02-26T03:33:10.296Z,64.30
2019-02-26T03:35:35.861Z,64.53
2019-02-26T03:38:03.555Z,69.83
2019-02-26T03:40:29.960Z,62.17
2019-02-26T03:42:56.845Z,63.60
2019-02-26T03:45:24.809Z,62.07
2019-02-26T03:47:49.256Z,67.13
2019-02-26T03:50:15.232Z,62.70
2019-02-26T03:52:41.223Z,65.43
2019-02-26T03:55:09.440Z,63.30
2019-02-26T03:57:34.311Z,68.87
2019-02-26T03:59:59.620Z,70.93
2019-02-26T04:02:25.066Z,62.37
2019-02-26T04:04:53.995Z,63.23
2019-02-26T04:07:17.551Z,70.67
2019-02-26T04:09:44.326Z,67.77
2019-02-26T04:12:12.605Z,62.93
2019-02-26T04:14:38.179Z,68.53
2019-02-26T04:17:05.924Z,68.30
2019-02-26T04:19:30.573Z,66.87
2019-02-26T04:22:26.561Z,64.53
2019-02-26T04:25:22.222Z,68.20
2019-02-26T04:27:53.585Z,69.37
2019-02-26T04:30:39.356Z,64.30
2019-02-26T04:33:24.152Z,67.40
2019-02-26T04:35:57.360Z,67.63
2019-02-26T04:38:29.094Z,68.60
2019-02-26T04:41:00.394Z,73.00
2019-02-26T04:43:42.703Z,65.17
2019-02-26T04:46:22.331Z,66.97
2019-02-26T04:48:48.261Z,63.97
2019-02-26T04:51:18.942Z,66.00
2019-02-26T04:53:44.471Z,66.93
2019-02-26T04:56:12.809Z,68.93
2019-02-26T04:58:39.782Z,67.17
2019-02-26T05:01:06.885Z,63.67
2019-02-26T05:03:31.917Z,62.53
2019-02-26T05:06:00.144Z,68.03
2019-02-26T05:08:25.048Z,67.03
2019-02-26T05:10:52.448Z,64.73
2019-02-26T05:13:18.088Z,70.67
2019-02-26T05:15:44.153Z,62.83
2019-02-26T05:18:09.726Z,65.60
2019-02-26T05:20:36.907Z,64.67
2019-02-26T05:23:03.868Z,64.43
2019-02-26T05:25:31.510Z,69.20
2019-02-26T05:27:57.878Z,68.43
2019-02-26T05:30:23.909Z,73.87
2019-02-26T05:32:51.958Z,72.27
2019-02-26T05:35:20.850Z,69.23
2019-02-26T05:37:46.778Z,67.30
2019-02-26T05:40:15.332Z,74.83
2019-02-26T05:42:39.732Z,71.30
2019-02-26T05:45:09.371Z,67.13
2019-02-26T05:47:34.762Z,74.20
2019-02-26T05:50:02.267Z,75.80
2019-02-26T05:52:28.134Z,69.30
2019-02-26T05:54:54.264Z,71.10
2019-02-26T05:57:29.138Z,77.80
2019-02-26T05:59:46.626Z,68.47
2019-02-26T06:02:14.050Z,63.20
2019-02-26T06:04:41.120Z,63.83
2019-02-26T06:07:06.443Z,67.53
2019-02-26T06:09:33.789Z,66.10
2019-02-26T06:11:59.011Z,67.90
2019-02-26T06:14:25.552Z,74.23
2019-02-26T06:16:55.420Z,71.03
2019-02-26T06:19:42.092Z,72.37
2019-02-26T06:22:08.943Z,71.87
2019-02-26T06:24:35.676Z,70.60
2019-02-26T06:27:01.172Z,73.43
2019-02-26T06:29:27.449Z,73.53
2019-02-26T06:31:57.565Z,68.10
2019-02-26T06:34:22.791Z,69.70
2019-02-26T06:36:48.881Z,78.13
2019-02-26T06:39:15.096Z,74.73
2019-02-26T06:41:41.945Z,73.63
2019-02-26T06:44:08.017Z,81.10
2019-02-26T06:46:33.693Z,67.77
2019-02-26T06:49:00.856Z,77.70
2019-02-26T06:51:28.132Z,76.20
2019-02-26T06:53:54.803Z,76.37
2019-02-26T06:56:22.105Z,69.33
2019-02-26T06:58:47.908Z,73.07
2019-02-26T07:01:14.325Z,71.50
2019-02-26T07:03:42.845Z,69.70
2019-02-26T07:06:08.475Z,69.07
2019-02-26T07:08:34.066Z,70.03
2019-02-26T07:11:00.699Z,71.63
2019-02-26T07:13:26.496Z,71.97
2019-02-26T07:15:52.032Z,66.00
2019-02-26T07:18:19.574Z,70.43
2019-02-26T07:20:47.511Z,68.80
2019-02-26T07:23:13.701Z,67.20
2019-02-26T07:25:42.037Z,68.03
2019-02-26T07:28:07.768Z,64.93
2019-02-26T07:30:35.320Z,67.40
2019-02-26T07:33:00.518Z,64.20
2019-02-26T07:35:25.725Z,66.07
2019-02-26T07:37:52.359Z,65.07
2019-02-26T07:40:18.904Z,70.43
2019-02-26T07:42:46.605Z,67.77
2019-02-26T07:45:14.950Z,72.43
2019-02-26T07:47:39.475Z,73.00
2019-02-26T07:50:09.726Z,80.97
2019-02-26T07:52:36.516Z,81.77
2019-02-26T07:55:03.700Z,64.80
2019-02-26T07:57:30.549Z,68.50
2019-02-26T07:59:56.110Z,69.63
2019-02-26T08:02:21.640Z,64.60
2019-02-26T08:04:47.318Z,72.00
2019-02-26T08:07:12.891Z,73.20
2019-02-26T08:12:10.789Z,70.23
2019-02-26T08:14:35.400Z,64.73
2019-02-26T08:17:01.884Z,69.80
2019-02-26T08:19:29.554Z,66.43
2019-02-26T08:21:57.117Z,66.60
2019-02-26T08:24:24.630Z,67.73
2019-02-26T08:26:50.395Z,68.50
2019-02-26T08:29:15.561Z,66.53
2019-02-26T08:31:42.717Z,68.97
2019-02-26T08:34:07.785Z,72.50
2019-02-26T08:36:35.279Z,66.80
2019-02-26T08:39:00.834Z,65.33
2019-02-26T08:41:26.684Z,73.93
2019-02-26T08:43:54.008Z,70.33
2019-02-26T08:46:19.663Z,70.93
2019-02-26T08:48:47.885Z,73.33
2019-02-26T08:51:16.891Z,71.43
2019-02-26T08:53:41.991Z,69.87
2019-02-26T08:56:08.423Z,70.00
2019-02-26T08:58:34.059Z,72.30
2019-02-26T09:00:59.577Z,72.30
2019-02-26T09:03:24.742Z,75.37
2019-02-26T09:05:51.671Z,70.70
2019-02-26T09:08:18.208Z,67.93
2019-02-26T09:10:43.815Z,69.77
2019-02-26T09:13:11.531Z,64.97
2019-02-26T09:15:40.904Z,60.33
2019-02-26T09:18:06.293Z,74.70
2019-02-26T09:20:31.915Z,65.83
2019-02-26T09:22:59.646Z,73.03
2019-02-26T09:25:28.170Z,64.70
2019-02-26T09:27:52.350Z,75.97
2019-02-26T09:30:19.335Z,65.47
2019-02-26T09:32:45.071Z,69.13
2019-02-26T09:35:11.987Z,71.30
2019-02-26T09:37:37.888Z,65.60
2019-02-26T09:40:05.351Z,71.10
2019-02-26T09:42:32.454Z,77.13
2019-02-26T09:45:00.074Z,68.63
2019-02-26T09:47:30.771Z,70.03
2019-02-26T09:49:58.305Z,74.80
2019-02-26T09:52:25.761Z,70.63
2019-02-26T09:54:52.909Z,75.70
2019-02-26T09:57:21.130Z,72.77
2019-02-26T09:59:46.369Z,71.87
2019-02-26T10:02:11.882Z,75.73
2019-02-26T10:04:37.469Z,74.37
2019-02-26T10:07:04.302Z,74.40
2019-02-26T10:09:32.977Z,80.00
2019-02-26T10:11:58.319Z,72.67
2019-02-26T10:14:23.875Z,74.37
2019-02-26T10:16:51.946Z,73.23
2019-02-26T10:19:17.688Z,80.10
2019-02-26T10:21:44.927Z,77.07
2019-02-26T10:24:10.503Z,77.37
2019-02-26T10:26:38.602Z,80.13
2019-02-26T10:29:04.810Z,78.13
2019-02-26T10:31:30.492Z,79.93
2019-02-26T10:33:56.011Z,76.17
2019-02-26T10:36:21.547Z,74.03
2019-02-26T10:38:47.087Z,82.93
2019-02-26T10:41:12.649Z,85.80
2019-02-26T10:43:39.925Z,75.57
2019-02-26T10:46:04.935Z,76.90
2019-02-26T10:48:30.083Z,84.77
2019-02-26T10:50:57.586Z,81.07
2019-02-26T10:53:23.148Z,79.90
2019-02-26T10:55:48.691Z,76.40
2019-02-26T10:58:14.617Z,81.73
2019-02-26T11:00:40.237Z,74.57
2019-02-26T11:03:06.561Z,75.50
2019-02-26T11:05:33.333Z,78.50
2019-02-26T11:08:02.440Z,78.50
2019-02-26T11:10:26.563Z,71.63
2019-02-26T11:12:53.628Z,72.17
2019-02-26T11:15:21.477Z,75.43
2019-02-26T11:17:47.949Z,79.20
2019-02-26T11:20:15.019Z,70.57
2019-02-26T11:22:42.335Z,80.00
2019-02-26T11:25:12.975Z,73.10
2019-02-26T11:27:40.883Z,70.90
2019-02-26T11:30:08.017Z,74.83
2019-02-26T11:32:37.258Z,71.23
2019-02-26T11:35:02.333Z,72.47
2019-02-26T11:37:29.625Z,65.27
2019-02-26T11:39:57.613Z,59.20
2019-02-26T11:42:24.146Z,68.77
2019-02-26T11:44:50.839Z,72.93
2019-02-26T11:47:18.422Z,61.47
2019-02-26T11:49:46.696Z,64.57
2019-02-26T11:52:12.528Z,63.07
2019-02-26T11:54:39.804Z,55.07
2019-02-26T11:57:08.058Z,56.57
2019-02-26T11:59:33.792Z,49.20
2019-02-26T12:02:01.423Z,53.80
2019-02-26T12:04:26.769Z,52.60
2019-02-26T12:06:52.025Z,49.70
2019-02-26T12:09:17.236Z,47.93
2019-02-26T12:11:42.426Z,48.93
2019-02-26T12:14:08.296Z,49.13
2019-02-26T12:16:35.179Z,51.80
2019-02-26T12:19:01.800Z,48.77
2019-02-26T12:21:29.916Z,43.67
2019-02-26T12:23:57.913Z,43.33
2019-02-26T12:26:25.549Z,42.20
2019-02-26T12:28:52.384Z,47.67
2019-02-26T12:31:17.919Z,48.03
2019-02-26T12:33:43.507Z,58.33
2019-02-26T12:36:10.230Z,55.77
2019-02-26T12:38:36.791Z,55.40
2019-02-26T12:41:02.555Z,52.00
2019-02-26T12:43:27.728Z,57.00
2019-02-26T12:45:56.092Z,65.30
2019-02-26T12:48:22.743Z,57.73
2019-02-26T12:50:47.604Z,59.13
2019-02-26T12:53:17.349Z,61.30
2019-02-26T12:55:42.444Z,62.77
2019-02-26T12:58:10.684Z,50.70
2019-02-26T13:00:38.379Z,50.33
2019-02-26T13:03:05.734Z,50.30
2019-02-26T13:05:30.587Z,50.50
2019-02-26T13:07:55.792Z,51.50
2019-02-26T13:10:25.594Z,53.83
2019-02-26T13:12:55.009Z,56.57
2019-02-26T13:15:21.616Z,53.33
2019-02-26T13:17:48.875Z,60.47
2019-02-26T13:20:21.679Z,51.50
2019-02-26T13:22:46.849Z,56.47
2019-02-26T13:25:15.598Z,56.57
2019-02-26T13:27:43.802Z,55.00
2019-02-26T13:30:13.785Z,47.60
2019-02-26T13:32:55.080Z,53.37
2019-02-26T13:35:08.287Z,53.27
2019-02-26T13:37:39.598Z,49.90
2019-02-26T13:40:01.357Z,56.50
2019-02-26T13:42:26.615Z,56.03
2019-02-26T13:44:51.836Z,52.80
2019-02-26T13:47:16.979Z,57.57
2019-02-26T13:49:42.145Z,59.80
2019-02-26T13:52:07.282Z,58.00
2019-02-26T13:54:32.564Z,57.53
2019-02-26T13:56:59.711Z,58.13
2019-02-26T13:59:24.899Z,57.43
2019-02-26T14:01:50.088Z,53.83
2019-02-26T14:04:15.268Z,54.70
2019-02-26T14:06:40.457Z,63.30
2019-02-26T14:09:05.724Z,56.60
2019-02-26T14:11:32.461Z,54.80
2019-02-26T14:13:57.684Z,59.07
2019-02-26T14:16:22.852Z,54.43
2019-02-26T14:18:48.310Z,54.07
2019-02-26T14:21:13.643Z,54.00
2019-02-26T14:23:38.821Z,53.10
2019-02-26T14:26:04.223Z,54.20
2019-02-26T14:28:30.496Z,52.50
2019-02-26T14:30:55.776Z,53.93
2019-02-26T14:33:21.008Z,49.50
2019-02-26T14:35:46.516Z,60.30
2019-02-26T14:38:11.860Z,56.90
2019-02-26T14:40:37.072Z,63.17
2019-02-26T14:43:02.720Z,56.30
2019-02-26T14:45:27.867Z,57.10
2019-02-26T14:47:53.052Z,54.47
2019-02-26T14:50:20.107Z,56.10
2019-02-26T14:52:46.180Z,65.83
2019-02-26T14:55:15.343Z,57.83
2019-02-26T14:57:41.060Z,60.77
2019-02-26T15:00:28.660Z,64.83
2019-02-26T15:02:54.944Z,57.90
2019-02-26T15:05:22.497Z,55.63
2019-02-26T15:07:48.249Z,58.83
2019-02-26T15:10:17.392Z,57.20
2019-02-26T15:12:42.993Z,59.67
2019-02-26T15:15:14.248Z,81.70
2019-02-26T15:17:39.697Z,57.13
2019-02-26T15:20:14.738Z,67.77
2019-02-26T15:22:41.265Z,54.97
2019-02-26T15:25:16.784Z,53.33
2019-02-26T15:27:42.081Z,55.00
2019-02-26T15:30:13.326Z,57.50
2019-02-26T15:32:38.670Z,55.43
2019-02-26T15:35:04.742Z,52.23
2019-02-26T15:37:30.049Z,53.57
2019-02-26T15:40:03.666Z,57.23
2019-02-26T15:42:53.099Z,58.50
2019-02-26T15:45:29.561Z,55.17
2019-02-26T15:47:59.184Z,56.37
2019-02-26T15:50:24.934Z,61.97
2019-02-26T15:52:53.048Z,60.10
2019-02-26T15:55:28.950Z,67.47
2019-02-26T15:57:55.904Z,68.97
2019-02-26T16:00:24.486Z,64.57
2019-02-26T16:03:00.014Z,65.97
2019-02-26T16:05:32.564Z,64.23
2019-02-26T16:07:57.803Z,69.53
2019-02-26T16:10:23.416Z,61.37
2019-02-26T16:12:50.641Z,68.50
2019-02-26T16:15:16.819Z,65.57
2019-02-26T16:17:42.571Z,68.40
2019-02-26T16:20:10.021Z,67.77
2019-02-26T16:22:36.101Z,69.43
2019-02-26T16:25:01.976Z,67.53
2019-02-26T16:27:27.672Z,72.33
2019-02-26T16:29:53.611Z,75.07
2019-02-26T16:32:19.133Z,70.60
2019-02-26T16:34:44.395Z,69.80
2019-02-26T16:37:09.693Z,75.27
2019-02-26T16:39:35.345Z,72.80
2019-02-26T16:42:00.800Z,72.57
2019-02-26T16:44:26.086Z,76.40
2019-02-26T16:46:51.384Z,76.90
2019-02-26T16:49:16.562Z,71.50
2019-02-26T16:51:41.818Z,73.80
2019-02-26T16:54:07.485Z,71.93
2019-02-26T16:56:33.536Z,71.63
2019-02-26T16:58:58.869Z,67.40
2019-02-26T17:01:24.115Z,71.73
2019-02-26T17:03:49.698Z,71.53
2019-02-26T17:06:15.237Z,77.60
2019-02-26T17:08:40.785Z,79.57
2019-02-26T17:11:06.575Z,73.57
2019-02-26T17:13:32.629Z,71.03
2019-02-26T17:15:59.645Z,84.20
2019-02-26T17:18:27.499Z,71.00
2019-02-26T17:20:56.717Z,77.97
2019-02-26T17:23:20.685Z,74.70
2019-02-26T17:25:46.332Z,76.30
2019-02-26T17:28:12.221Z,86.33
2019-02-26T17:30:38.853Z,79.70
2019-02-26T17:33:04.422Z,77.67
2019-02-26T17:35:30.011Z,81.97
2019-02-26T17:37:55.911Z,92.03
2019-02-26T17:40:23.356Z,87.53
2019-02-26T17:42:51.139Z,88.33
2019-02-26T17:45:17.958Z,80.57
2019-02-26T17:47:43.509Z,89.93
2019-02-26T17:50:13.444Z,79.60
2019-02-26T17:52:39.020Z,77.07
2019-02-26T17:55:09.176Z,84.03
2019-02-26T17:57:34.672Z,77.03
2019-02-26T18:00:01.012Z,80.03
2019-02-26T18:02:27.594Z,82.13
2019-02-26T18:04:53.735Z,80.90
2019-02-26T18:07:19.709Z,76.30
2019-02-26T18:09:45.604Z,80.00
2019-02-26T18:12:11.242Z,79.50
2019-02-26T18:14:38.884Z,77.77
2019-02-26T18:17:04.480Z,94.57
2019-02-26T18:19:31.054Z,82.47
2019-02-26T18:21:56.829Z,87.17
2019-02-26T18:24:22.496Z,82.23
2019-02-26T18:26:48.024Z,76.53
2019-02-26T18:29:13.603Z,90.10
2019-02-26T18:31:40.253Z,85.13
2019-02-26T18:34:05.926Z,83.83
2019-02-26T18:36:32.639Z,86.93
2019-02-26T18:38:58.311Z,75.00
2019-02-26T18:41:23.975Z,82.13
2019-02-26T18:43:49.561Z,74.43
2019-02-26T18:46:18.560Z,70.90
2019-02-26T18:48:48.282Z,84.63
2019-02-26T18:51:12.072Z,86.40
2019-02-26T18:53:37.960Z,86.63
2019-02-26T18:56:05.495Z,84.87
2019-02-26T18:58:31.574Z,87.77
2019-02-26T19:00:58.678Z,103.30
2019-02-26T19:03:24.994Z,98.30
2019-02-26T19:05:53.810Z,100.97
2019-02-26T19:08:18.992Z,92.80
2019-02-26T19:10:44.711Z,90.93
2019-02-26T19:13:10.275Z,90.50
2019-02-26T19:15:35.939Z,87.23
2019-02-26T19:18:02.666Z,86.83
2019-02-26T19:20:31.124Z,77.70
2019-02-26T19:22:58.751Z,78.27
2019-02-26T19:25:27.930Z,82.73
2019-02-26T19:27:59.389Z,72.37
2019-02-26T19:30:28.555Z,81.00
2019-02-26T19:32:54.318Z,72.00
2019-02-26T19:35:19.857Z,84.80
2019-02-26T19:37:46.804Z,73.80
2019-02-26T19:40:15.710Z,75.10
2019-02-26T19:42:42.621Z,74.30
2019-02-26T19:45:11.734Z,87.80
2019-02-26T19:47:37.092Z,79.00
2019-02-26T19:50:14.736Z,75.43
2019-02-26T19:52:40.527Z,76.13
2019-02-26T19:55:07.875Z,66.80
2019-02-26T19:57:33.590Z,74.07
2019-02-26T20:00:00.741Z,75.00
2019-02-26T20:02:26.667Z,68.30
2019-02-26T20:04:52.438Z,67.33
2019-02-26T20:07:18.152Z,72.43
2019-02-26T20:09:43.776Z,76.30
2019-02-26T20:12:10.059Z,65.07
2019-02-26T20:14:37.181Z,92.00
2019-02-26T20:17:13.667Z,88.07
2019-02-26T20:19:31.912Z,85.00
2019-02-26T20:21:58.118Z,79.37
2019-02-26T20:24:30.658Z,80.60
2019-02-26T20:26:57.392Z,79.63
2019-02-26T20:29:23.104Z,76.13
2019-02-26T20:31:48.789Z,73.53
2019-02-26T20:34:24.158Z,76.70
2019-02-26T20:36:51.288Z,77.83
2019-02-26T20:39:19.289Z,68.77
2019-02-26T20:41:45.671Z,81.73
2019-02-26T20:44:11.820Z,76.70
2019-02-26T20:46:40.074Z,77.33
2019-02-26T20:49:05.752Z,83.30
2019-02-26T20:51:34.530Z,68.00
2019-02-26T20:54:00.244Z,74.30
2019-02-26T20:56:28.555Z,71.20
2019-02-26T20:58:55.044Z,70.57
2019-02-26T21:01:20.603Z,69.87
2019-02-26T21:03:46.159Z,74.10
2019-02-26T21:06:11.778Z,83.50
2019-02-26T21:08:37.442Z,78.97
2019-02-26T21:11:03.311Z,97.27
2019-02-26T21:13:29.053Z,108.73
2019-02-26T21:15:54.642Z,85.27
2019-02-26T21:18:20.256Z,78.93
2019-02-26T21:20:46.596Z,67.77
2019-02-26T21:23:13.433Z,79.97
2019-02-26T21:25:47.407Z,74.83
2019-02-26T21:28:13.003Z,74.37
2019-02-26T21:30:39.169Z,62.30
2019-02-26T21:33:05.646Z,60.33
2019-02-26T21:35:31.349Z,68.47
2019-02-26T21:37:57.052Z,68.47
2019-02-26T21:43:17.332Z,68.00
2019-02-26T21:45:44.559Z,71.07
2019-02-26T21:48:10.189Z,61.43
2019-02-26T21:50:36.063Z,72.23
2019-02-26T21:53:02.423Z,71.80
2019-02-26T21:55:32.681Z,70.17
2019-02-26T21:57:56.106Z,71.77
2019-02-26T22:00:22.026Z,73.80
2019-02-26T22:02:52.105Z,69.60
2019-02-26T22:05:15.449Z,68.50
2019-02-26T22:07:42.296Z,74.77
2019-02-26T22:10:09.273Z,73.70
2019-02-26T22:12:35.142Z,74.37
2019-02-26T22:15:01.109Z,74.90
2019-02-26T22:17:27.661Z,76.10
2019-02-26T22:20:04.179Z,67.97
2019-02-26T22:22:31.053Z,75.67
2019-02-26T22:24:57.946Z,76.80
2019-02-26T22:27:24.351Z,72.63
2019-02-26T22:29:51.152Z,78.50
2019-02-26T22:35:19.881Z,72.47
2019-02-26T22:37:47.804Z,69.63
2019-02-26T22:40:14.104Z,71.67
2019-02-26T22:42:41.246Z,62.93
2019-02-26T22:45:13.959Z,71.37
2019-02-26T22:47:40.467Z,75.40
2019-02-26T22:50:09.652Z,63.00
2019-02-26T22:52:36.673Z,62.90
2019-02-26T22:55:03.344Z,59.77
2019-02-26T22:57:29.794Z,67.47
2019-02-26T22:59:59.596Z,61.20
2019-02-26T23:02:28.339Z,61.77
2019-02-26T23:04:54.544Z,53.37
2019-02-26T23:07:22.372Z,65.73
2019-02-26T23:09:52.165Z,63.57
2019-02-26T23:12:18.612Z,63.20
2019-02-26T23:14:44.869Z,63.83
2019-02-26T23:17:11.498Z,63.00
2019-02-26T23:19:39.485Z,60.10
2019-02-26T23:22:05.620Z,57.50
2019-02-26T23:24:31.384Z,63.20
2019-02-26T23:26:56.805Z,65.63
2019-02-26T23:29:22.407Z,59.90
2019-02-26T23:31:48.811Z,68.43
2019-02-26T23:34:14.482Z,62.70
2019-02-26T23:36:40.197Z,66.73
2019-02-26T23:39:06.385Z,64.00
2019-02-26T23:41:34.916Z,59.87
2019-02-26T23:44:02.432Z,63.17
2019-02-26T23:46:29.733Z,59.10
2019-02-26T23:48:55.711Z,60.80
2019-02-26T23:51:22.446Z,58.17
2019-02-26T23:53:47.862Z,61.70
2019-02-26T23:56:13.311Z,60.53
2019-02-26T23:58:38.887Z,62.27
